Time;durP1;ratioP1;P1;durP2;ratioP2;P2;SDS_P1;SDS_P2;PMS_P1;PMS_P2;Temp;Humidity;BMP_temperature;BMP_pressure;BME280_temperature;BME280_humidity;BME280_pressure;Samples;Min_cycle;Max_cycle;Signal;HPM_P1;HPM_P2
2022/06/25 00:00:30;;;;;;;3.42;1.42;;;20.50;91.30;;;;;;5034534;28;20041;-84
2022/06/25 00:02:55;;;;;;;1.80;1.53;;;20.50;91.30;;;;;;5032966;28;20036;-83
2022/06/25 00:05:32;;;;;;;2.17;1.50;;;20.50;91.70;;;;;;5030745;28;20080;-85
2022/06/25 00:07:58;;;;;;;2.47;1.70;;;20.40;91.30;;;;;;5052220;28;20489;-83
2022/06/25 00:10:25;;;;;;;2.10;1.58;;;20.40;91.20;;;;;;5026195;28;20128;-83
2022/06/25 00:12:51;;;;;;;2.45;1.60;;;20.40;91.20;;;;;;5041858;28;20131;-83
2022/06/25 00:15:17;;;;;;;2.90;1.87;;;20.40;91.20;;;;;;5029639;28;20040;-83
2022/06/25 00:17:43;;;;;;;2.20;1.60;;;20.40;91.20;;;;;;5053604;28;20424;-84
2022/06/25 00:20:10;;;;;;;3.13;1.92;;;20.30;91.30;;;;;;5029371;28;20087;-84
2022/06/25 00:22:36;;;;;;;2.35;1.90;;;20.20;91.20;;;;;;5038774;28;20242;-83
2022/06/25 00:25:02;;;;;;;3.63;1.70;;;20.20;91.10;;;;;;5047752;28;20151;-84
2022/06/25 00:27:28;;;;;;;2.80;1.73;;;20.20;91.20;;;;;;5017596;28;20041;-84
2022/06/25 00:29:53;;;;;;;2.90;1.80;;;20.20;91.20;;;;;;5054138;28;20066;-84
2022/06/25 00:32:19;;;;;;;3.70;1.80;;;20.10;91.20;;;;;;5036328;28;20033;-83
2022/06/25 00:34:45;;;;;;;2.28;1.60;;;20.10;91.20;;;;;;5037664;28;20035;-84
2022/06/25 00:37:10;;;;;;;2.00;1.53;;;20.10;91.30;;;;;;5038044;28;20128;-85
2022/06/25 00:39:37;;;;;;;2.10;1.63;;;20.10;91.20;;;;;;5048599;28;20036;-84
2022/06/25 00:42:09;;;;;;;2.40;1.50;;;20.00;91.20;;;;;;5042151;28;20040;-84
2022/06/25 00:44:35;;;;;;;2.20;1.53;;;20.00;91.00;;;;;;5039724;28;20347;-84
2022/06/25 00:47:01;;;;;;;2.53;1.55;;;20.00;91.20;;;;;;5053131;28;20577;-83
2022/06/25 00:49:28;;;;;;;1.98;1.40;;;20.00;91.20;;;;;;5013312;28;20254;-84
2022/06/25 00:51:56;;;;;;;3.33;1.70;;;19.90;91.20;;;;;;5043080;28;20067;-84
2022/06/25 00:54:24;;;;;;;3.10;1.60;;;19.90;91.20;;;;;;5037326;28;20540;-83
2022/06/25 00:56:51;;;;;;;2.33;1.60;;;19.90;91.20;;;;;;5052575;28;20033;-84
2022/06/25 00:59:23;;;;;;;2.20;1.40;;;19.80;91.20;;;;;;5031633;28;20040;-84
2022/06/25 01:01:49;;;;;;;2.00;1.40;;;19.80;91.10;;;;;;5057811;28;20041;-82
2022/06/25 01:04:15;;;;;;;2.13;1.60;;;19.80;91.30;;;;;;5025505;28;20045;-82
2022/06/25 01:06:41;;;;;;;4.57;1.55;;;19.80;91.30;;;;;;5026263;28;20269;-82
2022/06/25 01:09:07;;;;;;;2.50;1.30;;;19.80;91.30;;;;;;5048207;28;20032;-82
2022/06/25 01:11:32;;;;;;;1.53;1.33;;;19.70;91.20;;;;;;5046171;28;20166;-82
2022/06/25 01:13:58;;;;;;;2.10;1.50;;;19.70;91.30;;;;;;5040932;28;20643;-82
2022/06/25 01:16:24;;;;;;;2.40;1.60;;;19.70;91.20;;;;;;5035662;28;20196;-83
2022/06/25 01:18:49;;;;;;;1.63;1.40;;;19.70;91.20;;;;;;5042190;28;20115;-83
2022/06/25 01:21:15;;;;;;;2.70;1.53;;;19.70;91.20;;;;;;5024665;28;20286;-82
2022/06/25 01:23:41;;;;;;;2.67;1.50;;;19.70;91.60;;;;;;5045423;28;20052;-82
2022/06/25 01:26:07;;;;;;;2.63;1.50;;;19.60;91.20;;;;;;5048559;28;20041;-82
2022/06/25 01:28:33;;;;;;;2.30;1.30;;;19.60;91.20;;;;;;5038192;28;20034;-83
2022/06/25 01:30:59;;;;;;;2.63;1.60;;;19.60;91.20;;;;;;5027632;28;20028;-82
2022/06/25 01:33:24;;;;;;;1.47;1.30;;;19.60;91.20;;;;;;5038352;28;20704;-82
2022/06/25 01:35:50;;;;;;;2.90;1.60;;;19.60;91.20;;;;;;5030035;28;20040;-82
2022/06/25 01:38:16;;;;;;;3.00;1.47;;;19.50;91.20;;;;;;5053695;28;20423;-83
2022/06/25 01:40:42;;;;;;;2.13;1.65;;;19.50;91.30;;;;;;5037844;28;20020;-83
2022/06/25 01:43:07;;;;;;;2.07;1.50;;;19.50;91.30;;;;;;5054562;28;20040;-82
2022/06/25 01:45:34;;;;;;;3.63;1.65;;;19.50;91.40;;;;;;5025374;28;20300;-82
2022/06/25 01:48:01;;;;;;;3.63;1.50;;;19.50;91.40;;;;;;5059269;28;20040;-82
2022/06/25 01:50:27;;;;;;;3.55;1.60;;;19.40;91.50;;;;;;5022351;28;20409;-82
2022/06/25 01:52:53;;;;;;;1.75;1.50;;;19.40;91.60;;;;;;5029897;28;20033;-82
2022/06/25 01:55:20;;;;;;;2.70;1.50;;;19.40;91.70;;;;;;5038859;28;20039;-82
2022/06/25 01:57:46;;;;;;;3.38;1.70;;;19.50;91.80;;;;;;5045550;28;20415;-82
2022/06/25 02:00:19;;;;;;;3.00;1.43;;;19.50;91.90;;;;;;5035382;28;20029;-82
2022/06/25 02:02:45;;;;;;;2.55;1.80;;;19.50;91.70;;;;;;5044204;28;20033;-82
2022/06/25 02:05:12;;;;;;;3.05;1.50;;;19.50;92.00;;;;;;5025994;28;20361;-82
2022/06/25 02:07:38;;;;;;;2.90;1.40;;;19.50;92.00;;;;;;5028430;28;20417;-82
2022/06/25 02:10:05;;;;;;;1.80;1.50;;;19.60;92.00;;;;;;5045445;28;20267;-82
2022/06/25 02:12:30;;;;;;;3.27;1.57;;;19.60;91.90;;;;;;5047975;28;20405;-82
2022/06/25 02:14:56;;;;;;;2.00;1.50;;;19.60;91.80;;;;;;5040406;28;20033;-82
2022/06/25 02:17:22;;;;;;;1.80;1.50;;;19.60;91.60;;;;;;5038507;28;20037;-82
2022/06/25 02:19:47;;;;;;;1.70;1.40;;;19.60;91.50;;;;;;5061762;28;20036;-82
2022/06/25 02:22:14;;;;;;;1.87;1.40;;;19.60;91.40;;;;;;5026557;28;20032;-82
2022/06/25 02:24:42;;;;;;;2.63;1.40;;;19.50;91.40;;;;;;5020099;28;20044;-82
2022/06/25 02:27:08;;;;;;;2.17;1.40;;;19.50;91.60;;;;;;5046054;28;20025;-82
2022/06/25 02:29:34;;;;;;;2.63;1.47;;;19.40;91.20;;;;;;5046041;28;20059;-82
2022/06/25 02:31:59;;;;;;;2.75;1.60;;;19.40;91.30;;;;;;5026007;28;20021;-82
2022/06/25 02:34:25;;;;;;;1.90;1.63;;;19.40;91.40;;;;;;5050649;28;20244;-82
2022/06/25 02:36:50;;;;;;;2.20;1.50;;;19.30;91.40;;;;;;5034849;28;20045;-82
2022/06/25 02:39:17;;;;;;;4.10;1.60;;;19.30;91.50;;;;;;5031537;28;20520;-82
2022/06/25 02:41:43;;;;;;;2.33;1.50;;;19.30;91.50;;;;;;5035221;28;20555;-82
2022/06/25 02:44:09;;;;;;;2.22;1.40;;;19.20;91.60;;;;;;5048512;28;20401;-82
2022/06/25 02:46:34;;;;;;;2.60;1.70;;;19.20;91.70;;;;;;5023012;28;20049;-82
2022/06/25 02:49:01;;;;;;;2.33;1.65;;;19.20;91.70;;;;;;5049417;28;20035;-83
2022/06/25 02:51:27;;;;;;;3.83;1.90;;;19.20;92.10;;;;;;5035817;28;20067;-82
2022/06/25 02:53:52;;;;;;;2.10;1.67;;;19.20;91.80;;;;;;5011124;28;20489;-82
2022/06/25 02:59:03;;;;;;;1.97;1.53;;;19.20;91.90;;;;;;5036483;28;20033;-82
2022/06/25 03:01:29;;;;;;;3.70;1.70;;;19.10;91.90;;;;;;5033525;28;20044;-82
2022/06/25 03:03:56;;;;;;;3.17;1.80;;;19.20;92.00;;;;;;5040757;28;20029;-82
2022/06/25 03:06:22;;;;;;;2.15;1.77;;;19.10;92.00;;;;;;5037944;28;20043;-83
2022/06/25 03:08:48;;;;;;;2.33;1.63;;;19.20;92.00;;;;;;5017593;28;20558;-82
2022/06/25 03:11:15;;;;;;;2.83;1.65;;;19.20;92.10;;;;;;5044358;28;20477;-82
2022/06/25 03:13:41;;;;;;;2.33;1.60;;;19.20;92.10;;;;;;5034395;28;20354;-82
2022/06/25 03:16:07;;;;;;;2.08;1.58;;;19.20;92.10;;;;;;5048816;28;20078;-83
2022/06/25 03:18:34;;;;;;;2.90;1.67;;;19.20;92.10;;;;;;5043443;28;20117;-82
2022/06/25 03:21:00;;;;;;;2.22;1.60;;;19.20;92.20;;;;;;5047359;28;20403;-82
2022/06/25 03:23:26;;;;;;;2.65;1.70;;;19.20;92.20;;;;;;5011584;28;20025;-82
2022/06/25 03:25:52;;;;;;;2.15;1.60;;;19.20;92.20;;;;;;5050351;28;20040;-83
2022/06/25 03:28:18;;;;;;;2.00;1.58;;;19.20;92.20;;;;;;5049793;28;20051;-82
2022/06/25 03:30:44;;;;;;;2.63;1.50;;;19.20;92.20;;;;;;5048193;28;20032;-82
2022/06/25 03:33:09;;;;;;;2.33;1.80;;;19.20;92.30;;;;;;5041752;28;20515;-82
2022/06/25 03:35:35;;;;;;;2.30;1.70;;;19.20;92.30;;;;;;5036202;28;20684;-82
2022/06/25 03:38:01;;;;;;;2.97;1.58;;;19.20;92.30;;;;;;5044619;28;20412;-83
2022/06/25 03:40:26;;;;;;;3.50;1.70;;;19.20;92.30;;;;;;5022114;28;20040;-82
2022/06/25 03:42:52;;;;;;;2.28;1.60;;;19.20;92.30;;;;;;5056210;28;20033;-82
2022/06/25 03:45:18;;;;;;;2.40;1.50;;;19.20;92.40;;;;;;5048346;28;20044;-82
2022/06/25 03:47:49;;;;;;;2.88;1.67;;;19.20;92.30;;;;;;5045978;28;20040;-83
2022/06/25 03:50:16;;;;;;;3.28;1.80;;;19.30;92.40;;;;;;5036712;28;20036;-82
2022/06/25 03:52:42;;;;;;;3.03;1.57;;;19.30;92.40;;;;;;5042961;28;20039;-81
2022/06/25 03:55:08;;;;;;;1.85;1.48;;;19.30;92.40;;;;;;5036045;28;20033;-82
2022/06/25 03:57:35;;;;;;;1.95;1.50;;;19.30;92.50;;;;;;5029987;28;20200;-82
2022/06/25 04:00:01;;;;;;;3.47;1.80;;;19.30;92.50;;;;;;5048147;28;20064;-82
2022/06/25 04:02:27;;;;;;;2.90;1.70;;;19.30;92.50;;;;;;5047712;28;20266;-82
2022/06/25 04:04:52;;;;;;;2.55;1.73;;;19.30;92.60;;;;;;5048730;28;20044;-82
2022/06/25 04:07:18;;;;;;;3.20;1.80;;;19.30;92.60;;;;;;5041626;28;20052;-81
2022/06/25 04:09:44;;;;;;;2.22;1.50;;;19.40;92.70;;;;;;5039038;28;20055;-82
2022/06/25 04:12:09;;;;;;;1.97;1.40;;;19.30;92.60;;;;;;5031365;28;20044;-82
2022/06/25 04:14:35;;;;;;;2.27;1.57;;;19.40;92.70;;;;;;5052224;28;20041;-82
2022/06/25 04:17:00;;;;;;;2.07;1.40;;;19.40;92.70;;;;;;5052774;28;20288;-82
2022/06/25 04:19:26;;;;;;;2.03;1.60;;;19.50;92.80;;;;;;5041097;28;20762;-81
2022/06/25 04:21:52;;;;;;;3.60;1.88;;;19.50;92.80;;;;;;5062538;28;20744;-82
2022/06/25 04:24:17;;;;;;;3.67;1.70;;;19.50;92.90;;;;;;5040799;28;20037;-82
2022/06/25 04:26:44;;;;;;;2.97;1.70;;;19.50;92.90;;;;;;5045905;28;20078;-82
2022/06/25 04:29:10;;;;;;;2.03;1.60;;;19.50;92.90;;;;;;5024878;28;20033;-81
2022/06/25 04:31:37;;;;;;;1.77;1.60;;;19.60;93.10;;;;;;5030748;28;20246;-82
2022/06/25 04:34:04;;;;;;;3.05;1.70;;;19.60;93.00;;;;;;5053895;28;20186;-82
2022/06/25 04:36:30;;;;;;;3.05;1.90;;;19.60;93.10;;;;;;5034852;28;20501;-82
2022/06/25 04:38:56;;;;;;;3.50;1.90;;;19.70;93.20;;;;;;5059877;28;20044;-83
2022/06/25 04:41:21;;;;;;;2.28;1.70;;;19.70;93.20;;;;;;5032045;28;20037;-81
2022/06/25 04:43:48;;;;;;;2.33;1.57;;;19.80;93.30;;;;;;5033890;28;20033;-82
2022/06/25 04:46:13;;;;;;;3.20;1.50;;;19.80;93.40;;;;;;5046476;28;20298;-83
2022/06/25 04:48:39;;;;;;;2.40;1.85;;;19.90;93.40;;;;;;5045170;28;20305;-82
2022/06/25 04:51:05;;;;;;;2.70;1.60;;;19.90;93.50;;;;;;5032044;28;20403;-82
2022/06/25 04:53:31;;;;;;;3.55;1.65;;;20.00;93.50;;;;;;5044363;28;20060;-82
2022/06/25 04:55:57;;;;;;;2.70;1.70;;;20.00;93.50;;;;;;5041275;28;20417;-81
2022/06/25 04:58:23;;;;;;;4.07;1.80;;;20.10;93.50;;;;;;5040837;28;20261;-82
2022/06/25 05:00:49;;;;;;;3.90;1.43;;;20.10;93.50;;;;;;5026043;28;20692;-81
2022/06/25 05:03:15;;;;;;;2.15;1.67;;;20.20;93.50;;;;;;5021264;28;20151;-82
2022/06/25 05:05:40;;;;;;;2.42;1.58;;;20.30;93.40;;;;;;5037930;28;20710;-82
2022/06/25 05:08:06;;;;;;;2.70;1.50;;;20.30;93.40;;;;;;5030867;28;20504;-83
2022/06/25 05:10:32;;;;;;;3.33;1.70;;;20.30;93.40;;;;;;5059418;28;20127;-82
2022/06/25 05:13:12;;;;;;;1.97;1.37;;;20.40;93.30;;;;;;5039152;28;20800;-82
2022/06/25 05:15:41;;;;;;;2.08;1.70;;;20.40;93.50;;;;;;5028451;28;20135;-82
2022/06/25 05:18:08;;;;;;;2.05;1.50;;;20.40;93.20;;;;;;5030695;28;20276;-82
2022/06/25 05:20:43;;;;;;;2.97;1.50;;;20.40;93.50;;;;;;5030800;28;20037;-81
2022/06/25 05:23:09;;;;;;;2.00;1.60;;;20.50;92.60;;;;;;5041766;28;20021;-82
2022/06/25 05:25:35;;;;;;;2.47;1.45;;;20.40;93.20;;;;;;5046595;28;20128;-81
2022/06/25 05:28:01;;;;;;;2.90;1.30;;;20.50;93.20;;;;;;5035193;28;20448;-82
2022/06/25 05:30:27;;;;;;;3.55;1.60;;;20.50;93.60;;;;;;5030625;28;20272;-81
2022/06/25 05:32:53;;;;;;;2.00;1.50;;;20.50;93.40;;;;;;5044819;28;20025;-82
2022/06/25 05:35:19;;;;;;;1.77;1.50;;;20.50;93.40;;;;;;5023448;28;20033;-82
2022/06/25 05:37:44;;;;;;;2.10;1.50;;;20.60;93.40;;;;;;5052402;28;20155;-82
2022/06/25 05:40:11;;;;;;;1.38;1.27;;;20.60;93.40;;;;;;5036779;28;20493;-81
2022/06/25 05:42:36;;;;;;;3.15;1.50;;;20.60;93.30;;;;;;5044581;28;20678;-81
2022/06/25 05:45:03;;;;;;;2.07;1.50;;;20.70;93.40;;;;;;5055154;28;20024;-82
2022/06/25 05:47:29;;;;;;;1.60;1.50;;;20.70;93.40;;;;;;5023457;28;20547;-81
2022/06/25 05:49:55;;;;;;;2.93;1.63;;;20.70;93.40;;;;;;5021671;28;20043;-81
2022/06/25 05:52:21;;;;;;;3.47;1.33;;;20.80;93.50;;;;;;5041544;28;20262;-81
2022/06/25 05:54:46;;;;;;;2.35;1.35;;;20.80;93.40;;;;;;5031778;28;20431;-83
2022/06/25 05:57:12;;;;;;;2.10;1.30;;;20.90;93.50;;;;;;5035713;28;20128;-82
2022/06/25 05:59:38;;;;;;;2.33;1.40;;;20.90;93.40;;;;;;5043205;28;20689;-82
2022/06/25 06:02:03;;;;;;;2.20;1.48;;;21.00;93.40;;;;;;5025509;28;20044;-82
2022/06/25 06:04:29;;;;;;;2.65;1.40;;;21.00;93.30;;;;;;5036982;28;20568;-82
2022/06/25 06:06:55;;;;;;;2.13;1.30;;;21.00;93.30;;;;;;5038870;28;20040;-82
2022/06/25 06:09:20;;;;;;;1.80;1.40;;;21.00;93.30;;;;;;5031520;28;20582;-81
2022/06/25 06:11:46;;;;;;;1.83;1.30;;;21.00;93.30;;;;;;5038502;28;20547;-82
2022/06/25 06:14:12;;;;;;;2.22;1.40;;;21.10;93.30;;;;;;5030115;28;20039;-82
2022/06/25 06:16:37;;;;;;;1.90;1.30;;;21.10;93.70;;;;;;5046765;28;20404;-81
2022/06/25 06:19:03;;;;;;;2.10;1.35;;;21.20;93.40;;;;;;5026866;28;20112;-82
2022/06/25 06:21:29;;;;;;;2.53;1.40;;;21.20;93.40;;;;;;5028724;28;20056;-82
2022/06/25 06:23:54;;;;;;;2.63;1.50;;;21.20;93.40;;;;;;5025058;28;20151;-82
2022/06/25 06:26:20;;;;;;;1.70;1.30;;;21.20;93.30;;;;;;5037464;28;20283;-82
2022/06/25 06:28:47;;;;;;;2.37;1.20;;;21.20;93.30;;;;;;5025227;28;20040;-81
2022/06/25 06:31:12;;;;;;;2.60;1.10;;;21.20;93.10;;;;;;5045727;28;20041;-82
2022/06/25 06:33:38;;;;;;;1.98;1.20;;;21.30;93.40;;;;;;5019172;28;20033;-81
2022/06/25 06:36:04;;;;;;;2.60;1.27;;;21.30;93.50;;;;;;5034826;28;20064;-81
2022/06/25 06:38:30;;;;;;;2.65;1.20;;;21.40;93.50;;;;;;5020313;28;20449;-81
2022/06/25 06:40:55;;;;;;;2.57;1.30;;;21.40;93.60;;;;;;5036244;28;20036;-82
2022/06/25 06:43:21;;;;;;;3.08;1.35;;;21.50;93.60;;;;;;5029799;28;20095;-80
2022/06/25 06:45:46;;;;;;;2.13;1.20;;;21.50;93.60;;;;;;5052149;28;20560;-81
2022/06/25 06:48:12;;;;;;;1.80;1.20;;;21.60;93.60;;;;;;5036843;28;20040;-82
2022/06/25 06:50:38;;;;;;;3.05;1.20;;;21.60;93.70;;;;;;5018210;28;20161;-81
2022/06/25 06:53:03;;;;;;;1.30;1.20;;;21.70;93.60;;;;;;5021814;28;20043;-81
2022/06/25 06:55:29;;;;;;;1.50;1.20;;;21.80;93.70;;;;;;5022734;28;22967;-81
2022/06/25 06:57:54;;;;;;;2.70;1.33;;;21.80;93.80;;;;;;5045510;28;20032;-81
2022/06/25 07:00:20;;;;;;;1.67;1.30;;;21.90;93.90;;;;;;5019711;28;20054;-81
2022/06/25 07:02:46;;;;;;;1.37;1.20;;;22.00;93.80;;;;;;5046361;28;20327;-82
2022/06/25 07:05:12;;;;;;;2.50;1.30;;;22.10;93.80;;;;;;5027114;28;20048;-80
2022/06/25 07:07:38;;;;;;;2.20;1.50;;;22.20;93.70;;;;;;5022160;28;20036;-82
2022/06/25 07:10:04;;;;;;;3.17;1.40;;;22.20;93.70;;;;;;5036207;28;20321;-81
2022/06/25 07:12:30;;;;;;;2.33;1.33;;;22.30;93.80;;;;;;5050502;28;20376;-82
2022/06/25 07:14:55;;;;;;;2.10;1.30;;;22.40;93.70;;;;;;5033783;28;20048;-81
2022/06/25 07:17:21;;;;;;;1.60;1.30;;;22.40;93.60;;;;;;5049485;28;20420;-82
2022/06/25 07:19:47;;;;;;;2.07;1.20;;;22.50;93.50;;;;;;5026316;28;20482;-80
2022/06/25 07:22:12;;;;;;;1.73;1.20;;;22.60;93.40;;;;;;5045701;28;20087;-80
2022/06/25 07:24:38;;;;;;;1.63;1.03;;;22.60;93.20;;;;;;5033544;28;20318;-81
2022/06/25 07:27:03;;;;;;;1.63;1.10;;;22.60;93.10;;;;;;5034030;28;20138;-81
2022/06/25 07:29:29;;;;;;;2.60;1.25;;;22.60;93.30;;;;;;5032012;28;20271;-81
2022/06/25 07:31:56;;;;;;;2.40;1.17;;;22.70;93.30;;;;;;5036488;28;20036;-80
2022/06/25 07:34:22;;;;;;;1.95;1.13;;;22.70;93.30;;;;;;5051715;28;20032;-81
2022/06/25 07:36:48;;;;;;;2.05;1.20;;;22.80;93.60;;;;;;5027239;28;20044;-81
2022/06/25 07:39:14;;;;;;;1.83;1.00;;;22.90;93.70;;;;;;5046274;28;20115;-81
2022/06/25 07:41:40;;;;;;;2.20;1.10;;;23.00;93.70;;;;;;5024784;28;20604;-81
2022/06/25 07:44:05;;;;;;;1.48;1.23;;;23.10;93.60;;;;;;5062901;28;20032;-81
2022/06/25 07:46:31;;;;;;;1.70;1.10;;;23.20;93.70;;;;;;5032894;28;20119;-81
2022/06/25 07:48:57;;;;;;;2.42;1.30;;;23.30;93.80;;;;;;5046208;28;20322;-82
2022/06/25 07:54:06;;;;;;;2.40;1.20;;;23.60;94.00;;;;;;5026863;28;20342;-81
2022/06/25 07:56:32;;;;;;;1.50;1.30;;;23.70;94.40;;;;;;5047389;28;20099;-81
2022/06/25 07:58:58;;;;;;;1.83;1.17;;;23.90;94.60;;;;;;5017915;28;20039;-81
2022/06/25 08:01:24;;;;;;;1.50;1.10;;;24.10;94.60;;;;;;5039613;28;20631;-82
2022/06/25 08:03:50;;;;;;;2.13;1.10;;;24.40;94.40;;;;;;5039577;28;20048;-81
2022/06/25 08:06:15;;;;;;;2.03;1.20;;;24.50;93.30;;;;;;5029808;28;20052;-80
2022/06/25 08:08:41;;;;;;;1.30;1.00;;;24.70;92.90;;;;;;5023424;28;20112;-81
2022/06/25 08:11:07;;;;;;;0.93;0.90;;;24.70;92.30;;;;;;5047898;28;20091;-81
2022/06/25 08:13:33;;;;;;;1.43;1.10;;;24.70;91.90;;;;;;5032455;28;20270;-81
2022/06/25 08:15:59;;;;;;;1.00;0.90;;;24.70;92.10;;;;;;5050406;28;20040;-80
2022/06/25 08:18:25;;;;;;;2.13;1.00;;;24.60;92.50;;;;;;5034939;28;20266;-82
2022/06/25 08:20:51;;;;;;;1.27;1.17;;;24.70;92.60;;;;;;5062623;28;20040;-81
2022/06/25 08:23:16;;;;;;;1.77;1.20;;;24.80;92.40;;;;;;5032956;28;20049;-81
2022/06/25 08:25:42;;;;;;;2.13;1.20;;;24.90;93.10;;;;;;5036899;28;20053;-81
2022/06/25 08:28:08;;;;;;;1.63;1.10;;;25.00;93.60;;;;;;5026394;28;20044;-81
2022/06/25 08:30:34;;;;;;;1.38;1.08;;;25.30;94.30;;;;;;5044355;28;20028;-81
2022/06/25 08:33:01;;;;;;;1.50;1.10;;;25.50;93.80;;;;;;5031600;28;20388;-82
2022/06/25 08:35:27;;;;;;;1.37;0.97;;;25.70;93.50;;;;;;5046311;28;20039;-81
2022/06/25 08:37:53;;;;;;;1.67;1.10;;;25.90;93.00;;;;;;5028529;28;20067;-81
2022/06/25 08:40:20;;;;;;;2.03;1.00;;;26.00;92.70;;;;;;5032764;28;20394;-81
2022/06/25 08:42:49;;;;;;;1.90;1.10;;;26.20;92.10;;;;;;5052793;28;20029;-81
2022/06/25 08:45:17;;;;;;;1.30;1.10;;;26.20;91.60;;;;;;5028838;28;20115;-80
2022/06/25 08:47:47;;;;;;;1.73;1.10;;;26.20;91.30;;;;;;5037669;28;20121;-81
2022/06/25 08:50:15;;;;;;;2.03;1.00;;;26.20;90.40;;;;;;5039372;28;20559;-81
2022/06/25 08:52:52;;;;;;;2.35;1.45;;;26.20;91.20;;;;;;5052897;28;20531;-81
2022/06/25 08:55:34;;;;;;;1.95;1.20;;;26.20;90.00;;;;;;5016706;28;21294;-80
2022/06/25 08:58:01;;;;;;;1.77;1.10;;;26.20;88.60;;;;;;5049597;28;20757;-81
2022/06/25 09:00:31;;;;;;;1.27;1.00;;;26.20;91.10;;;;;;5041655;28;20043;-81
2022/06/25 09:02:57;;;;;;;1.50;1.17;;;26.30;91.20;;;;;;5037683;28;20071;-80
2022/06/25 09:05:36;;;;;;;1.58;1.10;;;26.30;90.80;;;;;;5039274;28;20048;-79
2022/06/25 09:08:05;;;;;;;2.45;1.10;;;26.30;87.50;;;;;;5048053;28;20570;-81
2022/06/25 09:10:32;;;;;;;1.30;1.20;;;26.20;88.50;;;;;;5021295;28;20448;-83
2022/06/25 09:13:03;;;;;;;2.40;1.37;;;26.30;90.20;;;;;;5044525;28;20586;-83
2022/06/25 09:15:37;;;;;;;1.30;1.20;;;26.30;89.20;;;;;;5035836;28;20047;-81
2022/06/25 09:18:07;;;;;;;2.20;1.20;;;26.30;88.70;;;;;;5045087;28;20039;-81
2022/06/25 09:20:33;;;;;;;3.15;1.38;;;26.40;88.90;;;;;;5041192;28;20883;-81
2022/06/25 09:23:03;;;;;;;2.15;1.17;;;26.40;90.30;;;;;;5033649;28;20182;-81
2022/06/25 09:25:30;;;;;;;1.77;1.13;;;26.50;90.10;;;;;;5037139;28;20049;-81
2022/06/25 09:27:57;;;;;;;1.45;1.30;;;26.50;89.90;;;;;;5030187;28;20433;-83
2022/06/25 09:30:25;;;;;;;2.03;1.20;;;26.60;90.40;;;;;;5039796;28;20028;-81
2022/06/25 09:32:55;;;;;;;1.80;1.50;;;26.80;90.20;;;;;;5040194;28;20696;-83
2022/06/25 09:35:43;;;;;;;1.70;1.40;;;26.90;89.90;;;;;;5035044;28;20041;-82
2022/06/25 09:38:20;;;;;;;3.10;1.77;;;27.00;85.00;;;;;;5046762;28;20070;-81
2022/06/25 09:40:59;;;;;;;2.22;1.50;;;27.10;88.70;;;;;;5036471;28;20153;-82
2022/06/25 09:43:26;;;;;;;3.53;1.52;;;27.10;85.40;;;;;;5049107;28;20029;-82
2022/06/25 09:45:55;;;;;;;2.22;1.60;;;27.10;87.60;;;;;;5035855;28;20068;-82
2022/06/25 09:48:20;;;;;;;3.35;1.83;;;27.00;85.50;;;;;;5044044;28;20131;-81
2022/06/25 09:51:04;;;;;;;3.17;1.70;;;26.90;88.40;;;;;;5035119;28;22216;-81
2022/06/25 09:53:30;;;;;;;2.97;1.70;;;26.90;84.50;;;;;;5052451;28;20036;-81
2022/06/25 09:55:56;;;;;;;2.20;1.77;;;27.00;90.10;;;;;;5003897;28;20567;-81
2022/06/25 09:58:25;;;;;;;2.10;1.58;;;27.10;90.50;;;;;;5030750;28;20600;-83
2022/06/25 10:00:51;;;;;;;1.98;1.77;;;27.40;91.30;;;;;;5043235;28;20077;-81
2022/06/25 10:03:24;;;;;;;2.33;1.60;;;27.70;91.40;;;;;;5037848;28;20345;-81
2022/06/25 10:05:52;;;;;;;2.83;1.60;;;28.10;90.70;;;;;;5039823;28;20028;-82
2022/06/25 10:08:20;;;;;;;3.63;1.60;;;28.40;92.20;;;;;;5043411;28;20135;-82
2022/06/25 10:10:48;;;;;;;2.30;1.52;;;28.90;92.70;;;;;;5010409;28;20044;-82
2022/06/25 10:13:15;;;;;;;2.22;1.70;;;29.30;93.30;;;;;;5059737;28;20515;-82
2022/06/25 10:15:41;;;;;;;2.42;1.60;;;29.80;93.10;;;;;;5035525;28;20068;-81
2022/06/25 10:18:11;;;;;;;1.63;1.30;;;30.20;92.40;;;;;;5028433;28;20584;-82
2022/06/25 10:20:41;;;;;;;2.58;1.90;;;30.50;91.20;;;;;;5042955;28;20024;-82
2022/06/25 10:23:10;;;;;;;2.45;1.40;;;30.70;89.50;;;;;;5039096;28;20650;-82
2022/06/25 10:25:37;;;;;;;2.20;1.70;;;30.90;90.00;;;;;;5030676;28;20055;-82
2022/06/25 10:28:07;;;;;;;1.80;1.50;;;31.00;88.60;;;;;;5037140;28;20608;-82
2022/06/25 10:30:37;;;;;;;2.73;1.70;;;31.00;86.60;;;;;;5047717;28;20599;-82
2022/06/25 10:33:03;;;;;;;3.63;1.50;;;31.10;85.50;;;;;;5042125;28;20052;-82
2022/06/25 10:35:34;;;;;;;1.65;1.50;;;31.20;87.10;;;;;;5035623;28;20513;-81
2022/06/25 10:38:11;;;;;;;1.92;1.50;;;31.10;82.80;;;;;;5041176;28;20247;-82
2022/06/25 10:40:58;;;;;;;2.63;1.43;;;31.00;80.40;;;;;;5047395;28;20428;-81
2022/06/25 10:43:36;;;;;;;2.35;1.38;;;31.00;79.40;;;;;;5032224;28;20056;-81
2022/06/25 10:46:29;;;;;;;2.22;1.30;;;31.00;82.40;;;;;;5050539;28;20364;-82
2022/06/25 10:49:07;;;;;;;2.47;1.50;;;31.00;79.80;;;;;;5037302;28;20040;-82
2022/06/25 10:51:47;;;;;;;1.92;1.20;;;30.90;82.70;;;;;;5059205;28;20032;-82
2022/06/25 10:54:26;;;;;;;2.20;1.23;;;30.70;78.10;;;;;;5045904;28;20040;-82
2022/06/25 10:56:54;;;;;;;2.45;1.40;;;30.50;80.40;;;;;;5034111;28;21085;-81
2022/06/25 10:59:36;;;;;;;1.70;1.20;;;30.20;79.70;;;;;;5064882;28;20047;-81
2022/06/25 11:02:05;;;;;;;1.85;1.20;;;29.90;75.50;;;;;;5040763;28;20247;-81
2022/06/25 11:04:32;;;;;;;2.65;1.33;;;29.60;78.80;;;;;;5051448;28;20029;-81
2022/06/25 11:07:17;;;;;;;2.27;1.17;;;29.40;79.30;;;;;;5045969;28;20166;-81
2022/06/25 11:09:56;;;;;;;2.10;1.13;;;29.10;75.50;;;;;;5031769;28;20036;-81
2022/06/25 11:12:23;;;;;;;2.45;1.20;;;28.80;76.80;;;;;;5026054;28;20036;-81
2022/06/25 11:14:57;;;;;;;2.08;1.25;;;28.60;79.80;;;;;;5037221;28;20686;-81
2022/06/25 11:17:23;;;;;;;1.70;1.30;;;28.40;79.80;;;;;;5043133;28;20429;-81
2022/06/25 11:19:49;;;;;;;1.40;1.27;;;28.20;80.50;;;;;;5057651;28;20287;-81
2022/06/25 11:22:14;;;;;;;2.42;1.42;;;28.00;80.50;;;;;;5046066;28;20037;-81
2022/06/25 11:28:47;;;;;;;2.80;1.43;;;27.80;80.50;;;;;;5035568;28;20152;-83
2022/06/25 11:30:14;;;;;;;1.63;1.33;;;27.50;81.00;;;;;;5046212;28;20104;-83
2022/06/25 11:32:46;;;;;;;2.22;1.50;;;27.20;80.20;;;;;;5042190;28;20349;-83
2022/06/25 11:35:12;;;;;;;2.77;1.57;;;27.00;79.70;;;;;;5050145;28;20031;-82
2022/06/25 11:37:37;;;;;;;2.40;1.60;;;26.90;80.80;;;;;;5047197;28;20481;-83
2022/06/25 11:40:11;;;;;;;1.67;1.40;;;26.70;81.60;;;;;;5044685;28;20934;-83
2022/06/25 11:42:37;;;;;;;2.17;1.50;;;26.60;83.40;;;;;;5042885;28;20028;-83
2022/06/25 11:45:03;;;;;;;1.80;1.40;;;26.60;85.00;;;;;;5033787;28;20715;-84
2022/06/25 11:47:29;;;;;;;2.80;1.40;;;26.60;85.90;;;;;;5038402;28;20044;-83
2022/06/25 11:49:55;;;;;;;1.92;1.50;;;26.80;87.90;;;;;;5046962;28;20740;-83
2022/06/25 11:52:23;;;;;;;1.48;1.20;;;27.00;90.00;;;;;;5047353;28;20043;-83
2022/06/25 11:54:51;;;;;;;1.95;1.20;;;27.40;90.50;;;;;;5037780;28;20168;-84
2022/06/25 11:57:26;;;;;;;1.53;1.00;;;27.70;90.60;;;;;;5058989;28;20045;-84
2022/06/25 11:59:53;;;;;;;1.30;1.20;;;28.20;88.40;;;;;;5017322;28;20353;-84
2022/06/25 12:02:20;;;;;;;1.40;1.17;;;28.60;91.70;;;;;;5048641;28;20048;-83
2022/06/25 12:05:00;;;;;;;1.58;1.10;;;29.00;92.20;;;;;;5037065;28;20082;-83
2022/06/25 12:07:28;;;;;;;1.38;1.20;;;29.60;90.10;;;;;;5041773;28;20041;-82
2022/06/25 12:09:59;;;;;;;1.30;1.20;;;30.20;92.90;;;;;;5040861;28;20233;-82
2022/06/25 12:12:26;;;;;;;1.58;1.05;;;30.70;91.20;;;;;;5039401;28;20045;-82
2022/06/25 12:14:59;;;;;;;1.83;1.23;;;31.20;91.90;;;;;;5022599;28;20166;-82
2022/06/25 12:17:32;;;;;;;1.65;1.10;;;31.60;89.20;;;;;;5066326;28;20064;-82
2022/06/25 12:20:08;;;;;;;1.10;1.00;;;31.80;84.90;;;;;;5043154;28;20256;-82
2022/06/25 12:22:45;;;;;;;1.30;1.17;;;31.80;82.70;;;;;;5038380;28;20090;-82
2022/06/25 12:25:12;;;;;;;1.23;1.10;;;31.80;82.20;;;;;;5040457;28;20063;-81
2022/06/25 12:27:49;;;;;;;1.58;1.15;;;31.80;83.60;;;;;;5041051;28;20041;-82
2022/06/25 12:30:34;;;;;;;1.08;1.00;;;31.60;78.90;;;;;;5033317;28;20465;-82
2022/06/25 12:33:13;;;;;;;1.02;1.00;;;31.60;79.50;;;;;;5037749;28;20451;-83
2022/06/25 12:35:44;;;;;;;1.70;1.00;;;31.50;80.40;;;;;;5043530;28;20044;-82
2022/06/25 12:38:14;;;;;;;2.25;1.23;;;31.40;79.70;;;;;;5052603;28;20112;-82
2022/06/25 12:40:46;;;;;;;1.17;1.08;;;31.30;80.90;;;;;;5048539;28;20040;-82
2022/06/25 12:43:13;;;;;;;1.00;1.00;;;31.10;78.80;;;;;;5043545;28;20414;-82
2022/06/25 12:45:41;;;;;;;1.25;0.90;;;31.00;81.30;;;;;;5016664;28;20043;-82
2022/06/25 12:48:10;;;;;;;1.17;1.00;;;31.00;81.00;;;;;;5049535;28;20223;-82
2022/06/25 12:50:38;;;;;;;1.10;1.00;;;31.00;81.80;;;;;;5032816;28;20028;-82
2022/06/25 12:53:12;;;;;;;1.20;1.10;;;31.00;82.30;;;;;;5043735;28;20368;-82
2022/06/25 12:55:39;;;;;;;1.10;1.00;;;31.00;78.80;;;;;;5044522;28;20033;-82
2022/06/25 12:58:06;;;;;;;1.40;1.20;;;30.90;80.00;;;;;;5033614;28;20098;-83